Time;durP1;ratioP1;P1;durP2;ratioP2;P2;SDS_P1;SDS_P2;PMS_P1;PMS_P2;Temp;Humidity;BMP_temperature;BMP_pressure;BME280_temperature;BME280_humidity;BME280_pressure;Samples;Min_cycle;Max_cycle;Signal;HPM_P1;HPM_P2
2021/11/30 00:00:00;;;;;;;;;;;;;;;3.69;92.12;95673.84;6183689;23;20007;-69
2021/11/30 00:02:26;;;;;;;;;;;;;;;3.69;92.41;95640.66;6183764;23;20295;-69
2021/11/30 00:04:52;;;;;;;;;;;;;;;3.70;92.08;95629.22;6183662;23;19958;-70
2021/11/30 00:07:17;;;;;;;;;;;;;;;3.70;92.21;95613.56;6183912;23;19920;-69
2021/11/30 00:12:15;;;;;;;;;;;;;;;3.72;92.31;95593.28;6183989;23;19928;-70
2021/11/30 00:14:41;;;;;;;;;;;;;;;3.73;92.07;95568.78;6183421;23;19943;-70
2021/11/30 00:17:07;;;;;;;;;;;;;;;3.79;92.74;95569.03;6184073;23;19920;-70
2021/11/30 00:19:33;;;;;;;;;;;;;;;3.80;92.34;95534.09;6183825;23;20244;-70
2021/11/30 00:21:59;;;;;;;;;;;;;;;3.83;92.36;95528.50;6183992;23;19920;-70
2021/11/30 00:24:28;;;;;;;;;;;;;;;3.86;92.41;95522.91;6183810;23;20319;-70
2021/11/30 00:26:53;;;;;;;;;;;;;;;3.89;92.32;95506.88;6183762;23;19920;-69
2021/11/30 00:29:19;;;;;;;;;;;;;;;3.91;92.22;95499.66;6183925;23;19921;-70
2021/11/30 00:31:45;;;;;;;;;;;;;;;3.96;92.90;95486.88;6183295;23;19960;-70
2021/11/30 00:34:10;;;;;;;;;;;;;;;3.99;92.22;95460.38;6183925;23;19920;-70
2021/11/30 00:36:36;;;;;;;;;;;;;;;3.99;92.49;95443.88;6183871;23;19920;-70
2021/11/30 00:39:02;;;;;;;;;;;;;;;3.99;92.56;95434.22;6183760;23;19927;-69
2021/11/30 00:41:27;;;;;;;;;;;;;;;4.03;92.93;95445.13;6183877;23;19952;-70
2021/11/30 00:43:54;;;;;;;;;;;;;;;4.04;92.92;95412.78;6183172;23;19920;-69
2021/11/30 00:46:32;;;;;;;;;;;;;;;4.05;92.55;95391.66;6183572;23;19920;-69
2021/11/30 00:48:58;;;;;;;;;;;;;;;4.05;92.89;95370.75;6184473;23;20339;-70
2021/11/30 00:51:23;;;;;;;;;;;;;;;4.08;92.77;95363.56;6185463;23;19920;-70
2021/11/30 00:53:49;;;;;;;;;;;;;;;4.13;92.70;95355.97;6185531;23;19920;-72
2021/11/30 00:56:15;;;;;;;;;;;;;;;4.14;93.19;95355.75;6185536;23;19920;-70
2021/11/30 00:58:41;;;;;;;;;;;;;;;4.13;92.77;95354.13;6183270;23;20374;-68
2021/11/30 01:01:07;;;;;;;;;;;;;;;4.14;93.23;95334.06;6184099;23;19922;-69
2021/11/30 01:03:32;;;;;;;;;;;;;;;4.20;93.35;95326.25;6184403;23;19924;-69
2021/11/30 01:05:58;;;;;;;;;;;;;;;4.26;92.80;95319.50;6185167;23;19924;-70
2021/11/30 01:08:24;;;;;;;;;;;;;;;4.38;92.95;95275.31;6185321;23;19921;-69
2021/11/30 01:10:49;;;;;;;;;;;;;;;4.42;93.58;95275.75;6183396;23;19920;-71
2021/11/30 01:13:15;;;;;;;;;;;;;;;4.45;93.06;95262.28;6185143;23;20354;-69
2021/11/30 01:15:41;;;;;;;;;;;;;;;4.45;93.54;95250.03;6185294;23;20246;-69
2021/11/30 01:18:06;;;;;;;;;;;;;;;4.48;93.11;95249.63;6185360;23;19943;-70
2021/11/30 01:20:32;;;;;;;;;;;;;;;4.45;93.41;95234.34;6185595;23;19924;-69
2021/11/30 01:22:58;;;;;;;;;;;;;;;4.45;92.75;95208.19;6184885;23;19931;-68
2021/11/30 01:25:24;;;;;;;;;;;;;;;4.51;93.27;95217.03;6185228;23;19920;-69
2021/11/30 01:27:50;;;;;;;;;;;;;;;4.49;92.82;95204.16;6185338;23;19943;-69
2021/11/30 01:30:15;;;;;;;;;;;;;;;4.56;92.92;95190.31;6185679;23;20224;-69
2021/11/30 01:32:42;;;;;;;;;;;;;;;4.58;93.09;95181.28;6183994;23;19920;-72
2021/11/30 01:35:08;;;;;;;;;;;;;;;4.64;92.95;95175.28;6184680;23;19920;-68
2021/11/30 01:37:34;;;;;;;;;;;;;;;4.63;93.07;95157.94;6159562;23;20462;-71
2021/11/30 01:40:00;;;;;;;;;;;;;;;4.65;93.28;95150.72;6185598;23;19928;-71
2021/11/30 01:42:26;;;;;;;;;;;;;;;4.68;93.55;95139.84;6184951;23;19927;-71
2021/11/30 01:44:56;;;;;;;;;;;;;;;4.72;93.13;95123.78;6185007;23;20422;-71
2021/11/30 01:49:51;;;;;;;;;;;;;;;4.83;93.85;95116.16;6155106;23;19920;-70
2021/11/30 01:52:17;;;;;;;;;;;;;;;4.91;93.74;95096.06;6155157;23;19920;-70
2021/11/30 01:54:44;;;;;;;;;;;;;;;4.95;93.79;95103.34;6128895;23;19971;-72
2021/11/30 01:57:10;;;;;;;;;;;;;;;5.01;93.88;95076.38;6155182;23;19921;-71
2021/11/30 01:59:36;;;;;;;;;;;;;;;5.07;94.23;95073.97;6155131;23;20442;-69
2021/11/30 02:02:02;;;;;;;;;;;;;;;5.15;94.26;95085.06;6152458;23;19921;-69
2021/11/30 02:04:27;;;;;;;;;;;;;;;5.28;94.10;95067.75;6154640;23;19928;-70
2021/11/30 02:06:53;;;;;;;;;;;;;;;5.38;94.48;95054.25;6153788;23;19924;-69
2021/11/30 02:09:19;;;;;;;;;;;;;;;5.50;94.20;95063.94;6155120;23;19920;-70
2021/11/30 02:11:44;;;;;;;;;;;;;;;5.55;94.49;95039.75;6129212;23;19927;-69
2021/11/30 02:14:11;;;;;;;;;;;;;;;5.63;94.12;95031.69;6154786;23;19921;-70
2021/11/30 02:16:37;;;;;;;;;;;;;;;5.75;94.61;95044.97;6128880;23;20362;-72
2021/11/30 02:19:03;;;;;;;;;;;;;;;5.86;94.10;95037.50;6154842;23;19927;-70
2021/11/30 02:21:33;;;;;;;;;;;;;;;6.02;95.01;95023.19;6154835;23;19921;-71
2021/11/30 02:23:59;;;;;;;;;;;;;;;6.19;94.52;95041.91;6154780;23;19956;-72
2021/11/30 02:26:25;;;;;;;;;;;;;;;6.28;94.64;95015.25;6155062;23;20004;-70
2021/11/30 02:28:51;;;;;;;;;;;;;;;6.43;94.65;95016.81;6154392;23;19928;-70
2021/11/30 02:31:19;;;;;;;;;;;;;;;6.53;95.03;95008.50;6155022;23;20275;-70
2021/11/30 02:33:45;;;;;;;;;;;;;;;6.61;94.90;95006.44;6154697;23;19922;-69
2021/11/30 02:36:21;;;;;;;;;;;;;;;6.68;94.28;95003.78;6154998;23;19983;-71
2021/11/30 02:38:47;;;;;;;;;;;;;;;6.77;94.33;94992.00;6129057;23;19931;-69
2021/11/30 02:41:12;;;;;;;;;;;;;;;6.80;94.87;94985.53;6154739;23;20244;-69
2021/11/30 02:43:38;;;;;;;;;;;;;;;6.87;94.37;94978.41;6154538;23;20342;-70
2021/11/30 02:46:04;;;;;;;;;;;;;;;6.91;94.65;94981.44;6168174;23;19920;-70
2021/11/30 02:48:29;;;;;;;;;;;;;;;6.96;94.65;94982.38;6184576;23;19999;-69
2021/11/30 02:50:57;;;;;;;;;;;;;;;7.03;94.51;94976.28;6183986;23;19920;-69
2021/11/30 02:53:22;;;;;;;;;;;;;;;7.04;94.56;94977.91;6184498;23;19979;-72
2021/11/30 02:55:48;;;;;;;;;;;;;;;7.11;94.89;94983.91;6184289;23;19943;-71
2021/11/30 02:58:14;;;;;;;;;;;;;;;7.16;94.79;94991.16;6183934;23;20241;-70
2021/11/30 03:00:40;;;;;;;;;;;;;;;7.16;94.38;94986.72;6184164;23;19920;-70
2021/11/30 03:03:06;;;;;;;;;;;;;;;7.23;94.62;94987.47;6184395;23;20011;-69
2021/11/30 03:05:32;;;;;;;;;;;;;;;7.21;94.74;94991.34;6184307;23;19924;-68
2021/11/30 03:07:57;;;;;;;;;;;;;;;7.31;94.50;95004.00;6184135;23;19926;-71
2021/11/30 03:10:23;;;;;;;;;;;;;;;7.38;94.52;94994.25;6183037;23;19955;-70
2021/11/30 03:12:49;;;;;;;;;;;;;;;7.44;94.25;94990.75;6182477;23;19962;-69
2021/11/30 03:15:17;;;;;;;;;;;;;;;7.45;94.06;94993.16;6184459;23;19920;-71
2021/11/30 03:17:43;;;;;;;;;;;;;;;7.45;93.74;94990.53;6185001;23;19974;-71
2021/11/30 03:20:09;;;;;;;;;;;;;;;7.46;93.38;94991.31;6185157;23;19930;-70
2021/11/30 03:22:35;;;;;;;;;;;;;;;7.44;93.12;94998.66;6184587;23;19926;-73
2021/11/30 03:25:00;;;;;;;;;;;;;;;7.44;92.65;95003.91;6183699;23;20343;-72
2021/11/30 03:27:26;;;;;;;;;;;;;;;7.43;92.60;95010.16;6183967;23;19920;-70
2021/11/30 03:29:53;;;;;;;;;;;;;;;7.39;92.13;94996.66;6183764;23;19920;-70
2021/11/30 03:35:04;;;;;;;;;;;;;;;7.41;89.37;95012.19;6184647;23;19920;-69
2021/11/30 03:37:29;;;;;;;;;;;;;;;7.38;88.92;95021.31;6185135;23;19927;-72
2021/11/30 03:39:57;;;;;;;;;;;;;;;7.36;87.76;95027.81;6184455;23;19920;-73
2021/11/30 03:42:22;;;;;;;;;;;;;;;7.32;87.33;95034.50;6183734;23;19920;-71
2021/11/30 03:44:48;;;;;;;;;;;;;;;7.23;85.84;95029.50;6183642;23;20224;-70
2021/11/30 03:47:14;;;;;;;;;;;;;;;7.15;85.51;95013.19;6182355;23;19920;-74
2021/11/30 03:49:40;;;;;;;;;;;;;;;7.05;84.92;95056.50;6183873;23;19920;-68
2021/11/30 03:52:06;;;;;;;;;;;;;;;6.97;84.47;95065.41;6181815;23;20047;-70
2021/11/30 03:54:31;;;;;;;;;;;;;;;6.91;84.58;95061.00;6184138;23;20243;-70
2021/11/30 03:56:57;;;;;;;;;;;;;;;6.87;85.54;95061.66;6183453;23;19982;-69
2021/11/30 03:59:23;;;;;;;;;;;;;;;6.82;85.67;95064.91;6184084;23;20450;-70
2021/11/30 04:01:49;;;;;;;;;;;;;;;6.78;85.98;95079.47;6183513;23;19924;-69
2021/11/30 04:04:20;;;;;;;;;;;;;;;6.67;85.94;95085.34;6183356;23;20283;-69
2021/11/30 04:06:47;;;;;;;;;;;;;;;6.50;84.21;95112.06;6182541;23;20355;-71
2021/11/30 04:09:13;;;;;;;;;;;;;;;6.35;83.08;95122.00;6183952;23;20028;-71
2021/11/30 04:11:40;;;;;;;;;;;;;;;6.23;82.07;95120.00;6181917;23;19932;-70
2021/11/30 04:14:06;;;;;;;;;;;;;;;6.12;82.04;95131.13;6183299;23;19920;-71
2021/11/30 04:16:32;;;;;;;;;;;;;;;6.04;81.95;95141.81;6183732;23;19991;-69
2021/11/30 04:18:58;;;;;;;;;;;;;;;5.94;80.57;95131.69;6183624;23;19955;-70
2021/11/30 04:21:24;;;;;;;;;;;;;;;5.89;80.82;95145.41;6183337;23;19920;-73
2021/11/30 04:23:50;;;;;;;;;;;;;;;5.84;80.57;95166.16;6181799;23;20238;-68
2021/11/30 04:26:16;;;;;;;;;;;;;;;5.78;81.86;95164.34;6185822;23;19995;-70
2021/11/30 04:28:44;;;;;;;;;;;;;;;5.72;81.80;95180.88;6184544;23;19983;-71
2021/11/30 04:31:09;;;;;;;;;;;;;;;5.65;82.26;95186.91;6185381;23;19927;-71
2021/11/30 04:33:35;;;;;;;;;;;;;;;5.60;81.56;95233.88;6185529;23;19920;-71
2021/11/30 04:36:01;;;;;;;;;;;;;;;5.54;82.08;95216.31;6183461;23;19927;-69
2021/11/30 04:38:26;;;;;;;;;;;;;;;5.42;81.37;95204.81;6185502;23;19983;-70
2021/11/30 04:40:52;;;;;;;;;;;;;;;5.35;81.92;95213.44;6185153;23;19974;-71
2021/11/30 04:43:19;;;;;;;;;;;;;;;5.25;81.99;95213.00;6185257;23;19924;-68
2021/11/30 04:45:54;;;;;;;;;;;;;;;5.26;82.33;95229.53;6185161;23;19924;-68
2021/11/30 04:48:20;;;;;;;;;;;;;;;5.27;82.77;95221.50;6185690;23;19920;-71
2021/11/30 04:50:49;;;;;;;;;;;;;;;5.25;83.20;95233.16;6184787;23;19920;-71
2021/11/30 04:53:15;;;;;;;;;;;;;;;5.28;83.22;95270.25;6209099;23;19994;-71
2021/11/30 04:55:41;;;;;;;;;;;;;;;5.32;83.76;95250.53;6184188;23;19967;-70
2021/11/30 04:58:07;;;;;;;;;;;;;;;5.37;83.94;95242.09;6185658;23;19921;-68
2021/11/30 05:00:33;;;;;;;;;;;;;;;5.43;83.97;95256.19;6185207;23;20319;-70
2021/11/30 05:02:59;;;;;;;;;;;;;;;5.45;83.72;95252.38;6185339;23;19924;-71
2021/11/30 05:05:24;;;;;;;;;;;;;;;5.45;83.62;95277.78;6185017;23;19974;-71
2021/11/30 05:07:50;;;;;;;;;;;;;;;5.50;83.18;95294.50;6185204;23;19946;-69
2021/11/30 05:10:18;;;;;;;;;;;;;;;5.51;83.59;95274.38;6185132;23;19920;-69
2021/11/30 05:12:44;;;;;;;;;;;;;;;5.53;83.27;95277.59;6185428;23;19943;-70
2021/11/30 05:15:10;;;;;;;;;;;;;;;5.56;83.49;95299.97;6185219;23;19928;-71
2021/11/30 05:17:36;;;;;;;;;;;;;;;5.61;83.41;95292.34;6185654;23;19920;-70
2021/11/30 05:20:02;;;;;;;;;;;;;;;5.65;82.72;95301.44;6184551;23;19920;-70
2021/11/30 05:22:28;;;;;;;;;;;;;;;5.67;82.37;95321.19;6183659;23;20007;-69
2021/11/30 05:24:54;;;;;;;;;;;;;;;5.64;82.28;95318.97;6185105;23;19920;-70
2021/11/30 05:27:20;;;;;;;;;;;;;;;5.67;82.38;95320.41;6185370;23;19927;-71
2021/11/30 05:29:46;;;;;;;;;;;;;;;5.62;82.88;95317.53;6186120;23;19927;-70
2021/11/30 05:32:11;;;;;;;;;;;;;;;5.60;83.08;95315.13;6185096;23;20263;-70
2021/11/30 05:34:37;;;;;;;;;;;;;;;5.59;82.85;95350.19;6185108;23;19967;-71
2021/11/30 05:37:03;;;;;;;;;;;;;;;5.61;81.88;95350.00;6185148;23;19927;-72
2021/11/30 05:39:29;;;;;;;;;;;;;;;5.65;81.13;95317.97;6184739;23;19924;-71
2021/11/30 05:41:54;;;;;;;;;;;;;;;5.70;80.81;95350.66;6184640;23;19920;-70
2021/11/30 05:44:20;;;;;;;;;;;;;;;5.69;80.11;95351.66;6185184;23;20446;-71
2021/11/30 05:46:48;;;;;;;;;;;;;;;5.61;79.52;95369.16;6183069;23;19931;-70
2021/11/30 05:49:14;;;;;;;;;;;;;;;5.56;79.44;95368.94;6185258;23;19942;-71
2021/11/30 05:51:40;;;;;;;;;;;;;;;5.54;78.61;95368.31;6183132;23;19999;-72
2021/11/30 05:54:05;;;;;;;;;;;;;;;5.45;77.35;95375.53;6183462;23;19974;-70
2021/11/30 05:56:31;;;;;;;;;;;;;;;5.43;76.84;95376.72;6184590;23;19926;-71
2021/11/30 05:58:57;;;;;;;;;;;;;;;5.32;76.67;95386.75;6157956;23;20255;-71
2021/11/30 06:01:27;;;;;;;;;;;;;;;5.34;76.56;95412.75;6184284;23;19932;-72
2021/11/30 06:03:58;;;;;;;;;;;;;;;5.31;76.36;95392.97;6184897;23;19920;-72
2021/11/30 06:06:25;;;;;;;;;;;;;;;5.32;76.25;95401.63;6185332;23;20327;-70
2021/11/30 06:08:51;;;;;;;;;;;;;;;5.26;75.73;95407.63;6184538;23;19924;-69
2021/11/30 06:11:17;;;;;;;;;;;;;;;5.21;76.54;95410.84;6183152;23;19999;-69
2021/11/30 06:13:43;;;;;;;;;;;;;;;5.19;77.46;95397.91;6184766;23;19939;-71
2021/11/30 06:16:08;;;;;;;;;;;;;;;5.14;76.75;95425.69;6184173;23;20316;-70
2021/11/30 06:18:34;;;;;;;;;;;;;;;5.11;76.21;95421.66;6184301;23;20011;-72
2021/11/30 06:21:00;;;;;;;;;;;;;;;5.11;76.86;95420.81;6183645;23;19929;-70
2021/11/30 06:23:25;;;;;;;;;;;;;;;4.99;77.14;95412.69;6184452;23;19999;-71
2021/11/30 06:25:51;;;;;;;;;;;;;;;4.95;78.37;95433.19;6184200;23;19928;-72
2021/11/30 06:28:16;;;;;;;;;;;;;;;4.95;78.85;95437.63;6184263;23;19920;-69
2021/11/30 06:30:42;;;;;;;;;;;;;;;4.86;79.61;95439.56;6184041;23;19920;-70
2021/11/30 06:33:08;;;;;;;;;;;;;;;4.85;79.96;95448.41;6184461;23;20401;-71
2021/11/30 06:35:36;;;;;;;;;;;;;;;4.75;79.53;95458.38;6183991;23;19924;-72
2021/11/30 06:38:02;;;;;;;;;;;;;;;4.65;78.92;95454.28;6184293;23;20003;-70
2021/11/30 06:40:28;;;;;;;;;;;;;;;4.62;77.85;95459.88;6184800;23;19975;-69
2021/11/30 06:42:54;;;;;;;;;;;;;;;4.61;77.11;95494.91;6183469;23;20370;-69
2021/11/30 06:45:19;;;;;;;;;;;;;;;4.58;76.96;95469.09;6183593;23;19920;-70
2021/11/30 06:47:45;;;;;;;;;;;;;;;4.56;77.26;95428.41;6183706;23;19927;-70
2021/11/30 06:50:11;;;;;;;;;;;;;;;4.55;77.29;95472.09;6183734;23;19923;-69
2021/11/30 06:52:38;;;;;;;;;;;;;;;4.49;77.15;95478.06;6183883;23;19920;-71
2021/11/30 06:55:08;;;;;;;;;;;;;;;4.44;77.15;95477.81;6181582;23;19952;-71
2021/11/30 06:57:34;;;;;;;;;;;;;;;4.47;76.97;95470.38;6182212;23;19926;-71
2021/11/30 07:00:03;;;;;;;;;;;;;;;4.44;76.63;95473.38;6182739;23;19924;-69
2021/11/30 07:02:30;;;;;;;;;;;;;;;4.37;76.30;95481.16;6183969;23;19931;-71
2021/11/30 07:04:59;;;;;;;;;;;;;;;4.41;76.36;95493.84;6183153;23;20259;-70
2021/11/30 07:10:47;;;;;;;;;;;;;;;4.30;77.03;95498.56;6153001;23;20352;-70
2021/11/30 07:13:31;;;;;;;;;;;;;;;4.32;75.53;95501.78;6183827;23;19920;-70
2021/11/30 07:15:58;;;;;;;;;;;;;;;4.27;75.14;95519.84;6183727;23;19920;-71
2021/11/30 07:18:24;;;;;;;;;;;;;;;4.25;74.81;95521.84;6184225;23;20347;-71
2021/11/30 07:20:50;;;;;;;;;;;;;;;4.21;73.71;95513.53;6184470;23;19978;-71
2021/11/30 07:23:15;;;;;;;;;;;;;;;4.25;72.44;95511.38;6183668;23;19920;-70
2021/11/30 07:25:42;;;;;;;;;;;;;;;4.18;71.91;95515.72;6184454;23;19920;-73
2021/11/30 07:28:07;;;;;;;;;;;;;;;4.15;71.06;95508.22;6182761;23;20019;-72
2021/11/30 07:30:33;;;;;;;;;;;;;;;4.25;71.04;95529.69;6184243;23;20023;-71
2021/11/30 07:33:00;;;;;;;;;;;;;;;4.20;70.73;95530.22;6183395;23;20592;-71
2021/11/30 07:35:26;;;;;;;;;;;;;;;4.13;69.77;95546.81;6184949;23;19920;-72
2021/11/30 07:37:52;;;;;;;;;;;;;;;4.10;68.93;95524.47;6184224;23;20362;-68
2021/11/30 07:40:18;;;;;;;;;;;;;;;4.05;69.05;95525.00;6209358;23;19995;-71
2021/11/30 07:42:44;;;;;;;;;;;;;;;4.02;68.76;95520.13;6182295;23;19920;-71
2021/11/30 07:45:13;;;;;;;;;;;;;;;4.00;69.58;95514.28;6182828;23;19974;-72
2021/11/30 07:47:39;;;;;;;;;;;;;;;3.98;69.46;95521.47;6182893;23;19974;-71
2021/11/30 07:50:05;;;;;;;;;;;;;;;3.95;70.33;95528.88;6157513;23;20023;-69
2021/11/30 07:52:36;;;;;;;;;;;;;;;3.99;70.62;95517.09;6183270;23;20337;-73
2021/11/30 07:55:04;;;;;;;;;;;;;;;4.00;71.04;95514.28;6184111;23;20011;-72
2021/11/30 07:57:30;;;;;;;;;;;;;;;4.00;71.77;95524.72;6183715;23;19927;-72
2021/11/30 07:59:56;;;;;;;;;;;;;;;4.00;72.00;95513.44;6183998;23;19920;-70
2021/11/30 08:02:22;;;;;;;;;;;;;;;3.86;72.59;95512.47;6181856;23;19920;-71
2021/11/30 08:04:49;;;;;;;;;;;;;;;3.72;72.96;95512.25;6181935;23;19927;-71
2021/11/30 08:07:16;;;;;;;;;;;;;;;3.40;72.92;95514.22;6182834;23;19927;-70
2021/11/30 08:09:41;;;;;;;;;;;;;;;3.32;73.65;95536.97;6182264;23;19951;-70
2021/11/30 08:12:07;;;;;;;;;;;;;;;3.31;74.05;95520.47;6182013;23;19971;-71
2021/11/30 08:14:33;;;;;;;;;;;;;;;3.26;73.00;95528.03;6155945;23;19926;-69
2021/11/30 08:16:58;;;;;;;;;;;;;;;3.20;71.57;95540.00;6181953;23;20318;-72
2021/11/30 08:19:24;;;;;;;;;;;;;;;3.21;70.14;95520.72;6181358;23;20008;-70
2021/11/30 08:21:50;;;;;;;;;;;;;;;3.23;69.21;95512.75;6182453;23;19999;-70
2021/11/30 08:24:15;;;;;;;;;;;;;;;3.26;69.67;95533.25;6181427;23;20377;-71
2021/11/30 08:26:44;;;;;;;;;;;;;;;3.21;71.27;95522.53;6205754;23;20247;-72
2021/11/30 08:29:10;;;;;;;;;;;;;;;2.97;73.16;95518.31;6107731;23;19952;-71
2021/11/30 08:31:35;;;;;;;;;;;;;;;2.66;74.78;95530.41;6181976;23;19974;-71
2021/11/30 08:34:01;;;;;;;;;;;;;;;2.56;75.33;95511.56;6181836;23;19944;-71
2021/11/30 08:36:27;;;;;;;;;;;;;;;2.53;74.75;95537.97;6181131;23;20343;-72
2021/11/30 08:38:53;;;;;;;;;;;;;;;2.51;74.00;95535.53;6184018;23;19958;-69
2021/11/30 08:41:20;;;;;;;;;;;;;;;2.50;73.42;95530.50;6183166;23;19966;-71
2021/11/30 08:43:46;;;;;;;;;;;;;;;2.57;73.65;95539.28;6183133;23;19963;-72
2021/11/30 08:46:12;;;;;;;;;;;;;;;2.61;72.48;95532.72;6180411;23;19920;-70
2021/11/30 08:48:37;;;;;;;;;;;;;;;2.56;72.42;95533.22;6181743;23;19920;-73
2021/11/30 08:51:03;;;;;;;;;;;;;;;2.66;72.01;95527.78;6183461;23;19920;-69
2021/11/30 08:53:33;;;;;;;;;;;;;;;2.67;71.54;95528.63;6183697;23;19963;-70
2021/11/30 08:55:59;;;;;;;;;;;;;;;2.67;71.80;95519.00;6181141;23;19952;-72
2021/11/30 08:58:25;;;;;;;;;;;;;;;2.69;71.97;95521.41;6180858;23;19920;-68
2021/11/30 09:00:52;;;;;;;;;;;;;;;2.69;72.33;95516.19;6180447;23;19995;-71
2021/11/30 09:03:20;;;;;;;;;;;;;;;2.56;72.03;95511.56;6179268;23;19927;-72
2021/11/30 09:05:46;;;;;;;;;;;;;;;2.55;71.90;95525.59;6180662;23;19924;-70
2021/11/30 09:08:12;;;;;;;;;;;;;;;2.50;71.16;95501.81;6203359;23;20629;-70
2021/11/30 09:10:38;;;;;;;;;;;;;;;2.42;71.34;95476.59;6183526;23;19947;-69
2021/11/30 09:13:03;;;;;;;;;;;;;;;2.46;71.51;95518.78;6183362;23;20335;-70
2021/11/30 09:15:29;;;;;;;;;;;;;;;2.44;71.92;95503.28;6183480;23;19928;-70
2021/11/30 09:17:56;;;;;;;;;;;;;;;2.38;72.19;95501.38;6183886;23;19920;-71
2021/11/30 09:20:22;;;;;;;;;;;;;;;2.35;72.45;95493.91;6182000;23;19927;-69
2021/11/30 09:22:50;;;;;;;;;;;;;;;2.28;72.15;95499.00;6182445;23;19955;-71
2021/11/30 09:25:16;;;;;;;;;;;;;;;2.24;71.93;95502.91;6157946;23;19943;-70
2021/11/30 09:27:43;;;;;;;;;;;;;;;2.26;71.51;95500.97;6184386;23;20335;-70
2021/11/30 09:30:17;;;;;;;;;;;;;;;2.22;71.31;95510.91;6181140;23;19924;-74
2021/11/30 09:32:44;;;;;;;;;;;;;;;2.23;71.54;95496.06;6183434;23;19929;-73
2021/11/30 09:35:10;;;;;;;;;;;;;;;2.21;70.87;95487.63;6184363;23;19931;-71
2021/11/30 09:37:38;;;;;;;;;;;;;;;2.17;70.70;95486.31;6185154;23;19920;-70
2021/11/30 09:40:05;;;;;;;;;;;;;;;2.09;71.21;95513.25;6182983;23;19920;-73
2021/11/30 09:42:31;;;;;;;;;;;;;;;1.92;71.72;95525.53;6157631;23;19924;-70
2021/11/30 09:44:57;;;;;;;;;;;;;;;1.89;72.70;95494.59;6183846;23;19927;-74
2021/11/30 09:47:23;;;;;;;;;;;;;;;1.94;72.71;95492.28;6184085;23;20335;-72
2021/11/30 09:49:48;;;;;;;;;;;;;;;1.96;72.32;95492.09;6182820;23;19924;-71
2021/11/30 09:52:14;;;;;;;;;;;;;;;2.01;71.82;95493.25;6183824;23;20063;-74
2021/11/30 09:54:40;;;;;;;;;;;;;;;2.01;72.03;95487.22;6184100;23;19920;-72
2021/11/30 09:57:05;;;;;;;;;;;;;;;1.98;72.33;95485.78;6182735;23;20227;-70
2021/11/30 09:59:31;;;;;;;;;;;;;;;2.05;72.51;95468.47;6182556;23;19920;-70
2021/11/30 10:01:57;;;;;;;;;;;;;;;2.01;71.67;95471.59;6183877;23;20307;-72
2021/11/30 10:04:22;;;;;;;;;;;;;;;2.00;71.51;95475.97;6184053;23;19958;-72
2021/11/30 10:06:48;;;;;;;;;;;;;;;2.03;71.37;95469.63;6183894;23;19989;-71
2021/11/30 10:09:18;;;;;;;;;;;;;;;1.98;71.60;95475.34;6184591;23;19982;-70
2021/11/30 10:11:44;;;;;;;;;;;;;;;1.90;71.74;95475.38;6183223;23;19974;-72
2021/11/30 10:14:15;;;;;;;;;;;;;;;1.89;72.22;95468.53;6184465;23;20413;-74
2021/11/30 10:17:04;;;;;;;;;;;;;;;1.94;72.89;95482.69;6182775;23;19920;-70
2021/11/30 10:19:32;;;;;;;;;;;;;;;1.86;72.80;95453.25;6184456;23;20305;-72
2021/11/30 10:21:57;;;;;;;;;;;;;;;1.76;73.11;95485.50;6182803;23;19920;-74
2021/11/30 10:24:23;;;;;;;;;;;;;;;1.64;73.91;95471.22;6184820;23;19927;-70
2021/11/30 10:26:55;;;;;;;;;;;;;;;1.62;75.13;95467.97;6182412;23;19947;-73
2021/11/30 10:29:24;;;;;;;;;;;;;;;1.64;75.48;95450.38;6180612;23;19927;-71
2021/11/30 10:31:51;;;;;;;;;;;;;;;1.41;76.94;95461.50;6158860;23;20347;-74
2021/11/30 10:34:16;;;;;;;;;;;;;;;1.31;77.25;95454.84;6184389;23;19926;-72
2021/11/30 10:36:45;;;;;;;;;;;;;;;1.27;77.88;95449.16;6183036;23;19920;-73
2021/11/30 10:39:18;;;;;;;;;;;;;;;1.14;78.57;95449.69;6183017;23;20007;-72
2021/11/30 10:41:48;;;;;;;;;;;;;;;1.00;78.91;95448.56;6184836;23;20020;-75
2021/11/30 10:44:14;;;;;;;;;;;;;;;0.96;79.10;95457.69;6182211;23;19920;-72
2021/11/30 10:46:40;;;;;;;;;;;;;;;0.90;79.83;95458.31;6184828;23;20310;-71
2021/11/30 10:49:06;;;;;;;;;;;;;;;0.85;79.41;95434.56;6184361;23;19920;-71
2021/11/30 10:51:45;;;;;;;;;;;;;;;0.85;79.21;95471.81;6183293;23;19994;-71
2021/11/30 10:54:11;;;;;;;;;;;;;;;0.76;78.71;95445.00;6184597;23;19931;-71
2021/11/30 10:56:42;;;;;;;;;;;;;;;0.74;78.62;95465.13;6184603;23;19920;-70
2021/11/30 10:59:07;;;;;;;;;;;;;;;0.66;78.53;95459.13;6182962;23;19940;-72
2021/11/30 11:01:40;;;;;;;;;;;;;;;0.66;78.84;95439.16;6184280;23;20336;-70
2021/11/30 11:04:14;;;;;;;;;;;;;;;0.64;79.76;95451.50;6156455;23;20006;-70
2021/11/30 11:06:43;;;;;;;;;;;;;;;0.66;79.34;95444.34;6184554;23;19995;-71
2021/11/30 11:09:13;;;;;;;;;;;;;;;0.61;80.17;95450.03;6182647;23;19927;-70
2021/11/30 11:11:44;;;;;;;;;;;;;;;0.61;79.82;95462.19;6157534;23;20331;-72
2021/11/30 11:14:31;;;;;;;;;;;;;;;0.62;78.96;95445.63;6182584;23;19948;-69
2021/11/30 11:17:00;;;;;;;;;;;;;;;0.67;78.14;95438.16;6184716;23;19974;-73
2021/11/30 11:19:45;;;;;;;;;;;;;;;0.70;78.54;95419.63;6184665;23;19993;-71
2021/11/30 11:22:17;;;;;;;;;;;;;;;0.61;77.72;95415.41;6184268;23;20026;-72
2021/11/30 11:24:50;;;;;;;;;;;;;;;0.60;78.28;95421.59;6184119;23;20382;-70
2021/11/30 11:27:19;;;;;;;;;;;;;;;0.55;78.60;95439.44;6182720;23;20246;-71
2021/11/30 11:29:45;;;;;;;;;;;;;;;0.54;78.85;95420.44;6183026;23;19920;-72
2021/11/30 11:32:13;;;;;;;;;;;;;;;0.51;80.00;95412.16;6181692;23;20355;-71
2021/11/30 11:34:39;;;;;;;;;;;;;;;0.55;80.15;95426.44;6184377;23;19927;-71
2021/11/30 11:37:09;;;;;;;;;;;;;;;0.45;80.58;95434.41;6157133;23;19920;-71
2021/11/30 11:39:37;;;;;;;;;;;;;;;0.39;80.62;95427.25;6184372;23;19974;-70
2021/11/30 11:48:59;;;;;;;;;;;;;;;0.21;82.54;95417.78;6103022;23;20058;-71
2021/11/30 11:51:36;;;;;;;;;;;;;;;0.19;82.47;95434.50;6121550;23;19921;-71
2021/11/30 11:54:01;;;;;;;;;;;;;;;0.15;83.23;95428.84;6096921;23;19921;-70
2021/11/30 11:56:30;;;;;;;;;;;;;;;0.17;82.36;95436.47;6121321;23;20036;-70
2021/11/30 11:59:13;;;;;;;;;;;;;;;0.04;82.63;95432.53;6121487;23;19921;-71
2021/11/30 12:01:41;;;;;;;;;;;;;;;0.01;82.67;95422.44;6120937;23;19925;-70
2021/11/30 12:04:10;;;;;;;;;;;;;;;-0.02;82.85;95422.78;6097054;23;20356;-73
2021/11/30 12:06:49;;;;;;;;;;;;;;;-0.02;83.41;95422.78;6121585;23;20070;-71
2021/11/30 12:09:14;;;;;;;;;;;;;;;-0.03;83.58;95442.72;6121502;23;19928;-72
2021/11/30 12:11:41;;;;;;;;;;;;;;;0.01;83.23;95419.84;6096781;23;19925;-70
2021/11/30 12:14:08;;;;;;;;;;;;;;;0.02;82.67;95433.69;6121612;23;19956;-69
2021/11/30 12:16:54;;;;;;;;;;;;;;;-0.04;82.66;95435.09;6072988;23;19925;-72
2021/11/30 12:19:55;;;;;;;;;;;;;;;-0.02;82.80;95433.97;6079593;23;19925;-70
2021/11/30 12:22:40;;;;;;;;;;;;;;;-0.04;82.45;95441.13;6076045;23;19985;-71
2021/11/30 12:25:07;;;;;;;;;;;;;;;-0.08;82.99;95445.00;6150364;23;19926;-71
2021/11/30 12:27:40;;;;;;;;;;;;;;;-0.09;83.58;95427.78;6180979;23;20271;-71
2021/11/30 12:30:31;;;;;;;;;;;;;;;-0.15;83.63;95453.56;6156800;23;19916;-73
2021/11/30 12:32:57;;;;;;;;;;;;;;;-0.23;83.11;95481.13;6091919;23;20424;-72
2021/11/30 12:35:23;;;;;;;;;;;;;;;-0.21;81.57;95449.84;6067866;23;19941;-70
2021/11/30 12:37:52;;;;;;;;;;;;;;;-0.13;80.88;95415.28;6067844;23;20278;-71
2021/11/30 12:40:18;;;;;;;;;;;;;;;-0.23;79.30;95437.00;6068658;23;19921;-69
2021/11/30 12:42:46;;;;;;;;;;;;;;;-0.27;78.48;95451.25;6092018;23;19928;-70
2021/11/30 12:45:15;;;;;;;;;;;;;;;-0.33;77.02;95437.09;6092195;23;19927;-69
2021/11/30 12:47:41;;;;;;;;;;;;;;;-0.35;77.75;95448.63;6069910;23;19921;-69
2021/11/30 12:50:08;;;;;;;;;;;;;;;-0.42;78.80;95447.63;6069764;23;19921;-70
2021/11/30 12:52:44;;;;;;;;;;;;;;;-0.64;81.26;95448.97;6093919;23;19929;-70
2021/11/30 12:55:10;;;;;;;;;;;;;;;-0.69;82.23;95465.78;6070106;23;19921;-72
2021/11/30 12:57:39;;;;;;;;;;;;;;;-0.77;82.55;95445.00;6094450;23;20376;-72
2021/11/30 13:00:08;;;;;;;;;;;;;;;-0.64;82.90;95454.16;6094308;23;19921;-69
2021/11/30 13:02:39;;;;;;;;;;;;;;;-0.62;82.83;95453.03;6093843;23;19921;-70
2021/11/30 13:05:14;;;;;;;;;;;;;;;-0.61;82.95;95456.44;6069892;23;20445;-71
2021/11/30 13:07:49;;;;;;;;;;;;;;;-0.74;82.80;95464.66;6069696;23;19928;-70
2021/11/30 13:10:22;;;;;;;;;;;;;;;-0.77;82.81;95475.31;6151368;23;20401;-72
2021/11/30 13:12:48;;;;;;;;;;;;;;;-0.77;82.23;95457.16;6185810;23;19920;-71